createdAt,value
2022-12-04T00:06:19.331Z,8.63
2022-12-04T00:21:24.773Z,11.00
2022-12-04T00:36:30.003Z,12.13
2022-12-04T00:51:34.312Z,9.77
2022-12-04T01:06:38.703Z,7.60
2022-12-04T01:21:43.577Z,8.27
2022-12-04T01:36:49.699Z,7.90
2022-12-04T01:51:58.413Z,8.00
2022-12-04T02:07:02.657Z,7.20
2022-12-04T02:22:11.598Z,7.80
2022-12-04T02:37:19.743Z,9.37
2022-12-04T02:52:27.113Z,10.60
2022-12-04T03:07:51.043Z,12.73
2022-12-04T03:23:00.737Z,11.23
2022-12-04T03:38:18.351Z,10.93
2022-12-04T03:53:35.410Z,8.13
2022-12-04T04:08:42.192Z,9.07
2022-12-04T04:24:08.143Z,9.20
2022-12-04T04:39:21.141Z,9.20
2022-12-04T04:54:26.185Z,9.10
2022-12-04T05:09:30.454Z,9.33
2022-12-04T05:24:35.616Z,12.57
2022-12-04T05:39:40.765Z,10.10
2022-12-04T05:54:45.107Z,9.67
2022-12-04T06:09:49.509Z,8.80
2022-12-04T06:24:54.747Z,10.37
2022-12-04T06:39:59.872Z,8.33
2022-12-04T06:55:04.441Z,6.70
2022-12-04T07:10:09.635Z,8.10
2022-12-04T07:25:14.399Z,7.17
2022-12-04T07:40:19.088Z,5.80
2022-12-04T07:55:23.605Z,5.47
2022-12-04T08:10:28.123Z,5.27
2022-12-04T08:25:32.388Z,5.40
2022-12-04T08:40:37.075Z,3.67
2022-12-04T08:55:41.482Z,3.90
2022-12-04T09:10:45.880Z,3.97
2022-12-04T09:25:51.006Z,3.70
2022-12-04T09:41:07.283Z,3.30
2022-12-04T09:56:16.200Z,4.57
2022-12-04T10:11:52.658Z,3.77
2022-12-04T10:26:59.845Z,5.10
2022-12-04T10:42:22.725Z,3.77
2022-12-04T10:57:49.209Z,3.67
2022-12-04T11:12:56.594Z,3.73
2022-12-04T11:28:02.919Z,4.83
2022-12-04T11:43:14.877Z,4.07
2022-12-04T11:58:30.060Z,4.53
2022-12-04T12:13:43.154Z,5.73
2022-12-04T12:29:11.029Z,6.10
2022-12-04T12:44:15.993Z,5.87
2022-12-04T12:59:25.260Z,6.23
2022-12-04T13:14:29.509Z,6.07
2022-12-04T13:29:34.471Z,6.00
2022-12-04T13:44:40.399Z,5.37
2022-12-04T13:59:45.109Z,5.57
2022-12-04T14:14:56.903Z,6.50
2022-12-04T14:30:03.665Z,6.70
2022-12-04T14:45:27.979Z,5.83
2022-12-04T15:00:32.551Z,7.00
2022-12-04T15:15:37.717Z,6.97
2022-12-04T15:30:42.977Z,6.07
2022-12-04T15:45:47.476Z,6.10
2022-12-04T16:00:55.451Z,6.63
2022-12-04T16:16:01.252Z,7.30
2022-12-04T16:31:06.705Z,5.53
2022-12-04T16:46:13.619Z,6.60
2022-12-04T17:01:27.437Z,7.77
2022-12-04T17:16:32.566Z,7.70
2022-12-04T17:31:37.075Z,7.10
2022-12-04T17:46:41.551Z,5.90
2022-12-04T18:01:45.795Z,5.10
2022-12-04T18:16:54.767Z,5.90
2022-12-04T18:31:59.003Z,4.63
2022-12-04T18:47:03.217Z,5.80
2022-12-04T19:02:08.214Z,4.63
2022-12-04T19:17:12.656Z,4.17
2022-12-04T19:32:17.429Z,4.60
2022-12-04T19:47:22.356Z,4.20
2022-12-04T20:02:28.755Z,4.03
2022-12-04T20:17:33.751Z,4.80
2022-12-04T20:32:38.005Z,4.70
2022-12-04T20:47:42.450Z,4.70
2022-12-04T21:02:46.884Z,4.93
2022-12-04T21:17:51.380Z,4.73
2022-12-04T21:32:56.352Z,4.93
2022-12-04T21:48:00.515Z,5.07
2022-12-04T22:03:06.425Z,5.30
2022-12-04T22:18:11.559Z,5.20
2022-12-04T22:33:16.897Z,5.60
2022-12-04T22:48:21.574Z,4.80
2022-12-04T23:03:26.366Z,4.57
2022-12-04T23:18:30.997Z,4.70
2022-12-04T23:33:35.160Z,4.90
2022-12-04T23:48:41.484Z,4.73
